sensor_id;sensor_type;location;lat;lon;timestamp;pressure;altitude;pressure_sealevel;temperature;humidity
35798;BME280;21918;49.940;7.774;2023-07-28T00:01:13;97939.91;;;24.09;60.06
35798;BME280;21918;49.940;7.774;2023-07-28T00:03:39;97935.84;;;24.10;60.02
35798;BME280;21918;49.940;7.774;2023-07-28T00:06:07;97937.53;;;24.07;60.25
35798;BME280;21918;49.940;7.774;2023-07-28T00:08:33;97932.75;;;24.04;60.02
35798;BME280;21918;49.940;7.774;2023-07-28T00:11:00;97929.66;;;23.99;60.22
35798;BME280;21918;49.940;7.774;2023-07-28T00:13:27;97934.63;;;23.95;60.47
35798;BME280;21918;49.940;7.774;2023-07-28T00:15:57;97947.94;;;23.94;60.38
35798;BME280;21918;49.940;7.774;2023-07-28T00:18:24;97939.53;;;23.91;60.53
35798;BME280;21918;49.940;7.774;2023-07-28T00:20:51;97936.25;;;23.92;60.43
35798;BME280;21918;49.940;7.774;2023-07-28T00:23:17;97936.19;;;23.96;60.77
35798;BME280;21918;49.940;7.774;2023-07-28T00:25:44;97939.75;;;24.00;60.50
35798;BME280;21918;49.940;7.774;2023-07-28T00:28:12;97927.97;;;24.01;60.44
35798;BME280;21918;49.940;7.774;2023-07-28T00:30:39;97919.06;;;24.03;60.41
35798;BME280;21918;49.940;7.774;2023-07-28T00:33:07;97929.47;;;24.06;60.43
35798;BME280;21918;49.940;7.774;2023-07-28T00:35:33;97926.31;;;24.04;60.50
35798;BME280;21918;49.940;7.774;2023-07-28T00:38:00;97915.00;;;24.04;60.30
35798;BME280;21918;49.940;7.774;2023-07-28T00:40:27;97915.34;;;24.06;60.53
35798;BME280;21918;49.940;7.774;2023-07-28T00:42:53;97908.19;;;24.01;60.63
35798;BME280;21918;49.940;7.774;2023-07-28T00:45:22;97905.53;;;23.94;60.72
35798;BME280;21918;49.940;7.774;2023-07-28T00:47:51;97904.34;;;23.92;60.75
35798;BME280;21918;49.940;7.774;2023-07-28T00:50:19;97907.63;;;23.90;60.99
35798;BME280;21918;49.940;7.774;2023-07-28T00:52:46;97910.88;;;23.89;60.88
35798;BME280;21918;49.940;7.774;2023-07-28T00:55:14;97912.31;;;23.81;61.27
35798;BME280;21918;49.940;7.774;2023-07-28T00:57:41;97907.25;;;23.72;61.24
35798;BME280;21918;49.940;7.774;2023-07-28T01:00:12;97913.84;;;23.66;61.45
35798;BME280;21918;49.940;7.774;2023-07-28T01:02:39;97910.69;;;23.64;61.65
35798;BME280;21918;49.940;7.774;2023-07-28T01:05:20;97908.91;;;23.54;61.99
35798;BME280;21918;49.940;7.774;2023-07-28T01:07:58;97905.66;;;23.55;61.97
35798;BME280;21918;49.940;7.774;2023-07-28T01:10:30;97912.44;;;23.58;61.96
35798;BME280;21918;49.940;7.774;2023-07-28T01:12:58;97916.50;;;23.57;62.20
35798;BME280;21918;49.940;7.774;2023-07-28T01:15:24;97908.81;;;23.57;62.07
35798;BME280;21918;49.940;7.774;2023-07-28T01:17:51;97920.91;;;23.58;62.27
35798;BME280;21918;49.940;7.774;2023-07-28T01:20:24;97924.81;;;23.64;62.11
35798;BME280;21918;49.940;7.774;2023-07-28T01:23:05;97923.16;;;23.66;62.01
35798;BME280;21918;49.940;7.774;2023-07-28T01:25:43;97922.09;;;23.76;61.75
35798;BME280;21918;49.940;7.774;2023-07-28T01:28:15;97927.16;;;23.85;61.87
35798;BME280;21918;49.940;7.774;2023-07-28T01:30:43;97923.44;;;23.88;61.82
35798;BME280;21918;49.940;7.774;2023-07-28T01:33:10;97920.25;;;23.86;61.62
35798;BME280;21918;49.940;7.774;2023-07-28T01:35:38;97925.41;;;23.91;61.59
35798;BME280;21918;49.940;7.774;2023-07-28T01:38:07;97924.16;;;23.92;61.63
35798;BME280;21918;49.940;7.774;2023-07-28T01:40:34;97914.81;;;23.95;61.58
35798;BME280;21918;49.940;7.774;2023-07-28T01:43:00;97919.22;;;23.96;61.39
35798;BME280;21918;49.940;7.774;2023-07-28T01:45:34;97917.66;;;23.95;61.46
35798;BME280;21918;49.940;7.774;2023-07-28T01:48:01;97922.91;;;23.93;61.53
35798;BME280;21918;49.940;7.774;2023-07-28T01:50:29;97920.97;;;23.90;61.30
35798;BME280;21918;49.940;7.774;2023-07-28T01:52:55;97916.97;;;23.87;61.75
35798;BME280;21918;49.940;7.774;2023-07-28T01:55:25;97919.09;;;23.83;61.71
35798;BME280;21918;49.940;7.774;2023-07-28T01:57:57;97923.63;;;23.81;61.95
35798;BME280;21918;49.940;7.774;2023-07-28T02:00:24;97921.94;;;23.83;61.99
35798;BME280;21918;49.940;7.774;2023-07-28T02:02:53;97925.19;;;23.82;61.82
35798;BME280;21918;49.940;7.774;2023-07-28T02:05:22;97923.50;;;23.84;61.82
35798;BME280;21918;49.940;7.774;2023-07-28T02:07:48;97922.81;;;23.80;61.87
35798;BME280;21918;49.940;7.774;2023-07-28T02:10:16;97926.06;;;23.79;61.98
35798;BME280;21918;49.940;7.774;2023-07-28T02:12:46;97919.28;;;23.76;61.91
35798;BME280;21918;49.940;7.774;2023-07-28T02:15:13;97924.06;;;23.79;62.18
35798;BME280;21918;49.940;7.774;2023-07-28T02:17:40;97927.69;;;23.80;62.08
35798;BME280;21918;49.940;7.774;2023-07-28T02:20:10;97928.56;;;23.77;62.01
35798;BME280;21918;49.940;7.774;2023-07-28T02:22:38;97921.72;;;23.74;62.08
35798;BME280;21918;49.940;7.774;2023-07-28T02:25:08;97924.66;;;23.71;62.43
35798;BME280;21918;49.940;7.774;2023-07-28T02:27:38;97925.47;;;23.71;62.23
35798;BME280;21918;49.940;7.774;2023-07-28T02:30:06;97919.00;;;23.71;62.61
35798;BME280;21918;49.940;7.774;2023-07-28T02:32:34;97910.91;;;23.73;62.63
35798;BME280;21918;49.940;7.774;2023-07-28T02:35:00;97914.06;;;23.75;62.42
35798;BME280;21918;49.940;7.774;2023-07-28T02:37:31;97917.75;;;23.72;62.52
35798;BME280;21918;49.940;7.774;2023-07-28T02:39:57;97909.28;;;23.72;62.51
35798;BME280;21918;49.940;7.774;2023-07-28T02:42:24;97912.09;;;23.72;62.65
35798;BME280;21918;49.940;7.774;2023-07-28T02:44:55;97912.22;;;23.68;62.78
35798;BME280;21918;49.940;7.774;2023-07-28T02:47:22;97918.19;;;23.70;62.68
35798;BME280;21918;49.940;7.774;2023-07-28T02:49:49;97921.72;;;23.74;62.80
35798;BME280;21918;49.940;7.774;2023-07-28T02:52:15;97915.63;;;23.76;62.79
35798;BME280;21918;49.940;7.774;2023-07-28T02:54:43;97914.88;;;23.75;62.84
35798;BME280;21918;49.940;7.774;2023-07-28T02:57:10;97907.16;;;23.76;62.72
35798;BME280;21918;49.940;7.774;2023-07-28T02:59:38;97896.75;;;23.73;62.95
35798;BME280;21918;49.940;7.774;2023-07-28T03:02:05;97901.16;;;23.74;62.89
35798;BME280;21918;49.940;7.774;2023-07-28T03:04:32;97901.16;;;23.74;62.77
35798;BME280;21918;49.940;7.774;2023-07-28T03:06:58;97901.50;;;23.76;62.81
35798;BME280;21918;49.940;7.774;2023-07-28T03:09:27;97906.72;;;23.77;62.73
35798;BME280;21918;49.940;7.774;2023-07-28T03:11:55;97914.75;;;23.79;62.89
35798;BME280;21918;49.940;7.774;2023-07-28T03:14:21;97918.13;;;23.74;62.88
35798;BME280;21918;49.940;7.774;2023-07-28T03:16:52;97927.06;;;23.72;63.07
35798;BME280;21918;49.940;7.774;2023-07-28T03:19:18;97923.41;;;23.72;62.92
35798;BME280;21918;49.940;7.774;2023-07-28T03:21:45;97927.84;;;23.73;63.09
35798;BME280;21918;49.940;7.774;2023-07-28T03:24:13;97924.56;;;23.74;62.84
35798;BME280;21918;49.940;7.774;2023-07-28T03:26:40;97925.63;;;23.80;62.86
35798;BME280;21918;49.940;7.774;2023-07-28T03:29:10;97921.94;;;23.83;62.80
35798;BME280;21918;49.940;7.774;2023-07-28T03:31:37;97921.13;;;23.83;62.71
35798;BME280;21918;49.940;7.774;2023-07-28T03:34:03;97923.19;;;23.82;62.77
35798;BME280;21918;49.940;7.774;2023-07-28T03:36:30;97919.53;;;23.82;62.67
35798;BME280;21918;49.940;7.774;2023-07-28T03:38:59;97930.41;;;23.83;62.64
35798;BME280;21918;49.940;7.774;2023-07-28T03:41:26;97930.84;;;23.82;62.75
35798;BME280;21918;49.940;7.774;2023-07-28T03:43:55;97928.84;;;23.82;62.77
35798;BME280;21918;49.940;7.774;2023-07-28T03:46:28;97936.50;;;23.82;62.83
35798;BME280;21918;49.940;7.774;2023-07-28T03:48:55;97936.50;;;23.82;63.00
35798;BME280;21918;49.940;7.774;2023-07-28T03:51:23;97932.91;;;23.81;62.75
35798;BME280;21918;49.940;7.774;2023-07-28T03:53:49;97940.56;;;23.81;62.78
35798;BME280;21918;49.940;7.774;2023-07-28T03:56:16;97940.47;;;23.84;62.84
35798;BME280;21918;49.940;7.774;2023-07-28T03:58:45;97938.81;;;23.87;62.91
35798;BME280;21918;49.940;7.774;2023-07-28T04:01:12;97948.88;;;23.88;62.76
35798;BME280;21918;49.940;7.774;2023-07-28T04:03:42;97945.69;;;23.86;62.90
35798;BME280;21918;49.940;7.774;2023-07-28T04:06:11;97952.59;;;23.85;62.49
35798;BME280;21918;49.940;7.774;2023-07-28T04:08:37;97947.81;;;23.82;62.87
35798;BME280;21918;49.940;7.774;2023-07-28T04:11:06;97949.78;;;23.85;62.82
35798;BME280;21918;49.940;7.774;2023-07-28T04:13:34;97959.75;;;23.89;62.98
35798;BME280;21918;49.940;7.774;2023-07-28T04:16:01;97962.16;;;23.91;62.79
35798;BME280;21918;49.940;7.774;2023-07-28T04:18:29;97966.22;;;23.90;62.69
35798;BME280;21918;49.940;7.774;2023-07-28T04:20:58;97956.56;;;23.87;62.76
35798;BME280;21918;49.940;7.774;2023-07-28T04:23:25;97963.84;;;23.88;62.80
35798;BME280;21918;49.940;7.774;2023-07-28T04:25:51;97970.28;;;23.89;62.74
35798;BME280;21918;49.940;7.774;2023-07-28T04:28:18;97978.31;;;23.90;62.99
35798;BME280;21918;49.940;7.774;2023-07-28T04:30:46;97974.72;;;23.90;62.75
35798;BME280;21918;49.940;7.774;2023-07-28T04:33:13;97977.88;;;23.92;62.68
35798;BME280;21918;49.940;7.774;2023-07-28T04:35:42;97985.94;;;23.93;62.65
35798;BME280;21918;49.940;7.774;2023-07-28T04:38:16;97989.78;;;23.83;62.77
35798;BME280;21918;49.940;7.774;2023-07-28T04:40:45;97990.75;;;23.77;63.03
35798;BME280;21918;49.940;7.774;2023-07-28T04:43:12;97989.94;;;23.76;63.36
35798;BME280;21918;49.940;7.774;2023-07-28T04:45:38;97995.53;;;23.80;63.17
35798;BME280;21918;49.940;7.774;2023-07-28T04:48:05;97995.88;;;23.82;63.04
35798;BME280;21918;49.940;7.774;2023-07-28T04:50:34;97994.56;;;23.86;63.13
35798;BME280;21918;49.940;7.774;2023-07-28T04:53:01;98002.91;;;23.93;63.12
35798;BME280;21918;49.940;7.774;2023-07-28T04:55:29;97998.41;;;23.96;62.85
35798;BME280;21918;49.940;7.774;2023-07-28T04:57:56;97987.47;;;23.98;63.03
35798;BME280;21918;49.940;7.774;2023-07-28T05:00:23;97996.66;;;24.02;62.89
35798;BME280;21918;49.940;7.774;2023-07-28T05:02:50;97998.69;;;24.01;62.88
35798;BME280;21918;49.940;7.774;2023-07-28T05:05:17;97989.41;;;24.01;62.75
35798;BME280;21918;49.940;7.774;2023-07-28T05:07:43;97992.59;;;24.03;62.62
35798;BME280;21918;49.940;7.774;2023-07-28T05:10:10;97988.19;;;24.02;62.73
35798;BME280;21918;49.940;7.774;2023-07-28T05:12:41;97982.19;;;24.00;62.83
35798;BME280;21918;49.940;7.774;2023-07-28T05:15:09;97986.16;;;24.02;62.75
35798;BME280;21918;49.940;7.774;2023-07-28T05:17:36;97997.81;;;24.04;62.90
35798;BME280;21918;49.940;7.774;2023-07-28T05:20:03;97990.50;;;24.07;62.44
35798;BME280;21918;49.940;7.774;2023-07-28T05:22:33;97988.44;;;24.07;62.61
35798;BME280;21918;49.940;7.774;2023-07-28T05:25:00;97991.66;;;24.09;62.57
35798;BME280;21918;49.940;7.774;2023-07-28T05:27:29;97992.09;;;24.08;62.61
35798;BME280;21918;49.940;7.774;2023-07-28T05:29:58;97985.28;;;24.05;62.66
35798;BME280;21918;49.940;7.774;2023-07-28T05:32:25;97987.66;;;24.07;62.38
35798;BME280;21918;49.940;7.774;2023-07-28T05:34:52;97990.13;;;24.05;62.57
35798;BME280;21918;49.940;7.774;2023-07-28T05:37:19;97986.94;;;24.03;62.68
35798;BME280;21918;49.940;7.774;2023-07-28T05:39:45;97985.72;;;24.04;62.66
35798;BME280;21918;49.940;7.774;2023-07-28T05:42:13;97988.88;;;24.06;62.60
35798;BME280;21918;49.940;7.774;2023-07-28T05:44:39;97990.41;;;24.10;62.43
35798;BME280;21918;49.940;7.774;2023-07-28T05:47:08;97987.41;;;24.17;62.44
35798;BME280;21918;49.940;7.774;2023-07-28T05:49:35;97992.19;;;24.20;62.36
35798;BME280;21918;49.940;7.774;2023-07-28T05:52:02;97992.44;;;24.26;62.54
35798;BME280;21918;49.940;7.774;2023-07-28T05:54:29;97995.28;;;24.26;62.21
35798;BME280;21918;49.940;7.774;2023-07-28T05:56:58;98002.53;;;24.27;62.39
35798;BME280;21918;49.940;7.774;2023-07-28T05:59:25;98008.19;;;24.27;62.19
35798;BME280;21918;49.940;7.774;2023-07-28T06:01:51;98004.13;;;24.28;62.33
35798;BME280;21918;49.940;7.774;2023-07-28T06:04:20;98008.47;;;24.32;62.23
35798;BME280;21918;49.940;7.774;2023-07-28T06:06:49;98004.31;;;24.37;62.30
35798;BME280;21918;49.940;7.774;2023-07-28T06:09:15;98004.22;;;24.40;62.15
35798;BME280;21918;49.940;7.774;2023-07-28T06:11:42;97999.69;;;24.43;62.00
35798;BME280;21918;49.940;7.774;2023-07-28T06:14:10;98009.00;;;24.43;62.20
35798;BME280;21918;49.940;7.774;2023-07-28T06:16:37;98007.84;;;24.41;62.25
35798;BME280;21918;49.940;7.774;2023-07-28T06:19:11;98010.69;;;24.41;62.00
35798;BME280;21918;49.940;7.774;2023-07-28T06:21:40;98005.72;;;24.45;62.00
35798;BME280;21918;49.940;7.774;2023-07-28T06:24:08;97999.19;;;24.48;62.16
35798;BME280;21918;49.940;7.774;2023-07-28T06:26:34;98002.59;;;24.55;62.11
35798;BME280;21918;49.940;7.774;2023-07-28T06:29:01;98013.69;;;24.66;61.59
35798;BME280;21918;49.940;7.774;2023-07-28T06:31:28;98010.34;;;24.71;61.62
35798;BME280;21918;49.940;7.774;2023-07-28T06:33:56;98015.91;;;24.75;61.43
35798;BME280;21918;49.940;7.774;2023-07-28T06:36:25;98014.22;;;24.77;61.22
35798;BME280;21918;49.940;7.774;2023-07-28T06:38:54;98010.84;;;24.82;61.29
35798;BME280;21918;49.940;7.774;2023-07-28T06:41:21;98013.13;;;24.87;61.23
35798;BME280;21918;49.940;7.774;2023-07-28T06:43:48;98012.63;;;24.92;61.15
35798;BME280;21918;49.940;7.774;2023-07-28T06:46:15;98030.66;;;24.98;61.05
35798;BME280;21918;49.940;7.774;2023-07-28T06:48:41;98029.06;;;24.97;60.71
35798;BME280;21918;49.940;7.774;2023-07-28T06:51:08;98038.28;;;25.01;60.92
35798;BME280;21918;49.940;7.774;2023-07-28T06:53:35;98043.03;;;25.04;60.75
35798;BME280;21918;49.940;7.774;2023-07-28T06:56:04;98047.81;;;25.07;60.91
35798;BME280;21918;49.940;7.774;2023-07-28T06:58:31;98043.31;;;25.10;60.64
35798;BME280;21918;49.940;7.774;2023-07-28T07:00:57;98050.63;;;25.07;60.77
35798;BME280;21918;49.940;7.774;2023-07-28T07:03:24;98051.44;;;25.08;60.88
35798;BME280;21918;49.940;7.774;2023-07-28T07:05:51;98052.94;;;25.12;60.72
35798;BME280;21918;49.940;7.774;2023-07-28T07:08:17;98052.06;;;25.15;60.87
35798;BME280;21918;49.940;7.774;2023-07-28T07:10:47;98052.75;;;25.19;60.68
35798;BME280;21918;49.940;7.774;2023-07-28T07:13:16;98055.91;;;25.21;60.34
35798;BME280;21918;49.940;7.774;2023-07-28T07:15:43;98050.25;;;25.21;60.39
35798;BME280;21918;49.940;7.774;2023-07-28T07:18:09;98060.25;;;25.26;60.42
35798;BME280;21918;49.940;7.774;2023-07-28T07:20:36;98058.22;;;25.26;60.32
35798;BME280;21918;49.940;7.774;2023-07-28T07:23:03;98058.22;;;25.26;60.50
35798;BME280;21918;49.940;7.774;2023-07-28T07:25:30;98051.66;;;25.29;60.18
35798;BME280;21918;49.940;7.774;2023-07-28T07:27:56;98063.72;;;25.33;60.34
35798;BME280;21918;49.940;7.774;2023-07-28T07:30:24;98058.06;;;25.33;60.23
35798;BME280;21918;49.940;7.774;2023-07-28T07:32:51;98062.13;;;25.32;60.47
35798;BME280;21918;49.940;7.774;2023-07-28T07:35:18;98062.84;;;25.36;60.52
35798;BME280;21918;49.940;7.774;2023-07-28T07:37:44;98066.00;;;25.38;60.60
35798;BME280;21918;49.940;7.774;2023-07-28T07:40:11;98061.94;;;25.39;60.24
35798;BME280;21918;49.940;7.774;2023-07-28T07:42:40;98071.66;;;25.38;60.41
35798;BME280;21918;49.940;7.774;2023-07-28T07:45:09;98072.38;;;25.42;60.47
35798;BME280;21918;49.940;7.774;2023-07-28T07:47:37;98079.56;;;25.47;60.16
35798;BME280;21918;49.940;7.774;2023-07-28T07:50:05;98079.88;;;25.49;60.35
35798;BME280;21918;49.940;7.774;2023-07-28T07:52:32;98080.34;;;25.47;60.31
35798;BME280;21918;49.940;7.774;2023-07-28T07:54:59;98084.75;;;25.48;60.59
35798;BME280;21918;49.940;7.774;2023-07-28T07:57:25;98089.00;;;25.56;60.31
35798;BME280;21918;49.940;7.774;2023-07-28T07:59:52;98092.06;;;25.62;60.16
35798;BME280;21918;49.940;7.774;2023-07-28T08:02:25;98079.03;;;25.64;60.34
35798;BME280;21918;49.940;7.774;2023-07-28T08:04:55;98085.75;;;25.70;59.98
35798;BME280;21918;49.940;7.774;2023-07-28T08:07:23;98084.50;;;25.71;60.32
35798;BME280;21918;49.940;7.774;2023-07-28T08:09:50;98080.44;;;25.72;59.79
35798;BME280;21918;49.940;7.774;2023-07-28T08:12:17;98081.22;;;25.73;59.88
35798;BME280;21918;49.940;7.774;2023-07-28T08:14:44;98081.13;;;25.76;60.10
35798;BME280;21918;49.940;7.774;2023-07-28T08:17:12;98085.91;;;25.79;60.07
35798;BME280;21918;49.940;7.774;2023-07-28T08:19:39;98086.69;;;25.80;59.76
35798;BME280;21918;49.940;7.774;2023-07-28T08:22:07;98081.81;;;25.80;59.99
35798;BME280;21918;49.940;7.774;2023-07-28T08:24:34;98086.34;;;25.78;59.77
35798;BME280;21918;49.940;7.774;2023-07-28T08:27:01;98087.13;;;25.78;60.33
35798;BME280;21918;49.940;7.774;2023-07-28T08:29:27;98085.78;;;25.83;60.09
35798;BME280;21918;49.940;7.774;2023-07-28T08:31:54;98081.59;;;25.87;60.18
35798;BME280;21918;49.940;7.774;2023-07-28T08:34:21;98084.44;;;25.87;60.08
35798;BME280;21918;49.940;7.774;2023-07-28T08:36:48;98086.38;;;25.90;59.56
35798;BME280;21918;49.940;7.774;2023-07-28T08:39:17;98078.31;;;25.89;59.82
35798;BME280;21918;49.940;7.774;2023-07-28T08:41:44;98088.78;;;25.92;59.72
35798;BME280;21918;49.940;7.774;2023-07-28T08:44:10;98097.47;;;26.01;60.05
35798;BME280;21918;49.940;7.774;2023-07-28T08:46:37;98082.69;;;26.06;59.94
35798;BME280;21918;49.940;7.774;2023-07-28T08:49:04;98087.34;;;26.12;59.86
35798;BME280;21918;49.940;7.774;2023-07-28T08:51:31;98098.97;;;26.18;59.60
35798;BME280;21918;49.940;7.774;2023-07-28T08:53:57;98096.91;;;26.18;59.41
35798;BME280;21918;49.940;7.774;2023-07-28T08:56:26;98096.00;;;26.21;59.55
35798;BME280;21918;49.940;7.774;2023-07-28T08:59:00;98099.97;;;26.24;59.77
35798;BME280;21918;49.940;7.774;2023-07-28T09:01:28;98096.47;;;26.32;59.42
35798;BME280;21918;49.940;7.774;2023-07-28T09:03:55;98103.63;;;26.37;59.28
35798;BME280;21918;49.940;7.774;2023-07-28T09:06:28;98093.97;;;26.34;59.31
35798;BME280;21918;49.940;7.774;2023-07-28T09:08:56;98100.91;;;26.33;58.95
35798;BME280;21918;49.940;7.774;2023-07-28T09:11:27;98102.13;;;26.32;59.16
35798;BME280;21918;49.940;7.774;2023-07-28T09:13:54;98097.16;;;26.36;59.02
35798;BME280;21918;49.940;7.774;2023-07-28T09:16:22;98093.75;;;26.41;59.16
35798;BME280;21918;49.940;7.774;2023-07-28T09:19:03;98104.31;;;26.41;59.47
35798;BME280;21918;49.940;7.774;2023-07-28T09:21:30;98088.53;;;26.52;59.09
35798;BME280;21918;49.940;7.774;2023-07-28T09:23:59;98098.88;;;26.59;58.68
35798;BME280;21918;49.940;7.774;2023-07-28T09:26:37;98096.13;;;26.55;58.88
35798;BME280;21918;49.940;7.774;2023-07-28T09:29:11;98103.69;;;26.62;58.97
35798;BME280;21918;49.940;7.774;2023-07-28T09:31:38;98098.91;;;26.71;58.90
35798;BME280;21918;49.940;7.774;2023-07-28T09:34:06;98085.94;;;26.70;58.64
35798;BME280;21918;49.940;7.774;2023-07-28T09:36:34;98094.25;;;26.77;58.67
35798;BME280;21918;49.940;7.774;2023-07-28T09:39:02;98091.94;;;26.85;58.54
35798;BME280;21918;49.940;7.774;2023-07-28T09:41:35;98101.94;;;26.89;58.26
35798;BME280;21918;49.940;7.774;2023-07-28T09:44:02;98107.16;;;26.91;58.87
35798;BME280;21918;49.940;7.774;2023-07-28T09:46:33;98099.78;;;26.93;58.39
35798;BME280;21918;49.940;7.774;2023-07-28T09:49:04;98097.28;;;26.95;58.01
35798;BME280;21918;49.940;7.774;2023-07-28T09:51:31;98109.00;;;26.98;57.89
35798;BME280;21918;49.940;7.774;2023-07-28T09:54:04;98106.38;;;26.90;57.73
35798;BME280;21918;49.940;7.774;2023-07-28T09:56:32;98106.84;;;26.89;57.99
35798;BME280;21918;49.940;7.774;2023-07-28T09:59:04;98105.81;;;26.83;58.17
35798;BME280;21918;49.940;7.774;2023-07-28T10:01:34;98107.53;;;26.80;58.22
35798;BME280;21918;49.940;7.774;2023-07-28T10:04:01;98109.66;;;26.76;58.19
35798;BME280;21918;49.940;7.774;2023-07-28T10:06:42;98111.63;;;26.67;58.80
35798;BME280;21918;49.940;7.774;2023-07-28T10:09:10;98113.31;;;26.77;58.49
35798;BME280;21918;49.940;7.774;2023-07-28T10:11:48;98113.66;;;26.79;58.50
35798;BME280;21918;49.940;7.774;2023-07-28T10:14:26;98109.91;;;26.82;58.55
35798;BME280;21918;49.940;7.774;2023-07-28T10:16:54;98109.56;;;26.92;58.36
35798;BME280;21918;49.940;7.774;2023-07-28T10:19:24;98114.69;;;26.98;58.38
35798;BME280;21918;49.940;7.774;2023-07-28T10:21:59;98109.56;;;26.92;58.42
35798;BME280;21918;49.940;7.774;2023-07-28T10:27:29;98114.00;;;26.93;58.26
35798;BME280;21918;49.940;7.774;2023-07-28T10:29:58;98112.16;;;26.99;58.23
35798;BME280;21918;49.940;7.774;2023-07-28T10:32:28;98120.56;;;27.03;58.37
35798;BME280;21918;49.940;7.774;2023-07-28T10:35:07;98121.94;;;26.98;58.44
35798;BME280;21918;49.940;7.774;2023-07-28T10:37:36;98121.69;;;27.06;58.30
35798;BME280;21918;49.940;7.774;2023-07-28T10:40:29;98124.78;;;26.98;58.65
35798;BME280;21918;49.940;7.774;2023-07-28T10:42:57;98129.97;;;27.13;58.48
35798;BME280;21918;49.940;7.774;2023-07-28T10:45:26;98134.41;;;27.14;58.08
35798;BME280;21918;49.940;7.774;2023-07-28T10:47:57;98131.91;;;27.16;57.93
35798;BME280;21918;49.940;7.774;2023-07-28T10:50:27;98128.72;;;27.14;57.95
35798;BME280;21918;49.940;7.774;2023-07-28T10:52:57;98128.41;;;27.12;57.97
35798;BME280;21918;49.940;7.774;2023-07-28T10:55:25;98128.41;;;27.12;58.15
35798;BME280;21918;49.940;7.774;2023-07-28T10:57:57;98130.66;;;27.17;58.23
35798;BME280;21918;49.940;7.774;2023-07-28T11:00:26;98133.38;;;27.20;58.19
35798;BME280;21918;49.940;7.774;2023-07-28T11:02:54;98127.03;;;27.16;57.86
35798;BME280;21918;49.940;7.774;2023-07-28T11:05:23;98128.06;;;27.10;58.39
35798;BME280;21918;49.940;7.774;2023-07-28T11:08:04;98128.66;;;27.05;58.47
35798;BME280;21918;49.940;7.774;2023-07-28T11:10:33;98123.38;;;27.16;58.16
35798;BME280;21918;49.940;7.774;2023-07-28T11:13:02;98126.13;;;27.19;58.09
35798;BME280;21918;49.940;7.774;2023-07-28T11:15:33;98125.66;;;27.21;58.06
35798;BME280;21918;49.940;7.774;2023-07-28T11:18:00;98126.38;;;27.25;58.12
35798;BME280;21918;49.940;7.774;2023-07-28T11:20:31;98125.09;;;27.26;58.13
35798;BME280;21918;49.940;7.774;2023-07-28T11:22:59;98124.50;;;27.31;58.16
35798;BME280;21918;49.940;7.774;2023-07-28T11:25:29;98131.09;;;27.40;57.89
35798;BME280;21918;49.940;7.774;2023-07-28T11:28:01;98136.19;;;27.45;57.52
35798;BME280;21918;49.940;7.774;2023-07-28T11:30:28;98136.75;;;27.53;57.36
35798;BME280;21918;49.940;7.774;2023-07-28T11:32:56;98124.69;;;27.49;57.20
35798;BME280;21918;49.940;7.774;2023-07-28T11:35:24;98137.19;;;27.51;57.32
35798;BME280;21918;49.940;7.774;2023-07-28T11:37:53;98134.81;;;27.50;57.57
35798;BME280;21918;49.940;7.774;2023-07-28T11:40:25;98139.03;;;27.58;57.60
35798;BME280;21918;49.940;7.774;2023-07-28T11:42:54;98134.31;;;27.64;57.30
35798;BME280;21918;49.940;7.774;2023-07-28T11:45:22;98139.06;;;27.67;57.33
35798;BME280;21918;49.940;7.774;2023-07-28T11:47:57;98145.03;;;27.60;57.27
35798;BME280;21918;49.940;7.774;2023-07-28T11:50:26;98143.09;;;27.57;57.34
35798;BME280;21918;49.940;7.774;2023-07-28T11:52:53;98155.75;;;27.56;57.27
35798;BME280;21918;49.940;7.774;2023-07-28T11:55:24;98140.84;;;27.52;57.27
35798;BME280;21918;49.940;7.774;2023-07-28T11:57:51;98149.69;;;27.54;57.63
35798;BME280;21918;49.940;7.774;2023-07-28T12:00:19;98149.03;;;27.50;57.20
35798;BME280;21918;49.940;7.774;2023-07-28T12:03:02;98148.63;;;27.39;57.77
35798;BME280;21918;49.940;7.774;2023-07-28T12:05:30;98144.06;;;27.41;57.59
35798;BME280;21918;49.940;7.774;2023-07-28T12:07:58;98146.59;;;27.39;57.90
35798;BME280;21918;49.940;7.774;2023-07-28T12:10:25;98144.19;;;27.38;57.73
35798;BME280;21918;49.940;7.774;2023-07-28T12:12:54;98140.53;;;27.37;57.90
35798;BME280;21918;49.940;7.774;2023-07-28T12:15:23;98149.78;;;27.29;57.99
35798;BME280;21918;49.940;7.774;2023-07-28T12:18:08;98135.88;;;27.18;58.38
35798;BME280;21918;49.940;7.774;2023-07-28T12:20:36;98146.28;;;27.25;58.23
35798;BME280;21918;49.940;7.774;2023-07-28T12:23:04;98139.78;;;27.24;58.16
35798;BME280;21918;49.940;7.774;2023-07-28T12:25:31;98140.91;;;27.27;58.30
35798;BME280;21918;49.940;7.774;2023-07-28T12:28:00;98141.13;;;27.32;58.34
35798;BME280;21918;49.940;7.774;2023-07-28T12:30:26;98139.88;;;27.33;58.17
35798;BME280;21918;49.940;7.774;2023-07-28T12:32:56;98143.50;;;27.34;58.05
35798;BME280;21918;49.940;7.774;2023-07-28T12:35:27;98145.09;;;27.35;57.99
35798;BME280;21918;49.940;7.774;2023-07-28T12:37:57;98148.72;;;27.35;58.02
35798;BME280;21918;49.940;7.774;2023-07-28T12:40:26;98143.50;;;27.34;58.02
35798;BME280;21918;49.940;7.774;2023-07-28T12:42:55;98146.69;;;27.36;57.98
35798;BME280;21918;49.940;7.774;2023-07-28T12:45:21;98143.25;;;27.41;58.04
35798;BME280;21918;49.940;7.774;2023-07-28T12:47:51;98145.88;;;27.48;58.29
35798;BME280;21918;49.940;7.774;2023-07-28T12:50:20;98144.00;;;27.54;57.87
35798;BME280;21918;49.940;7.774;2023-07-28T12:52:49;98154.69;;;27.62;57.83
35798;BME280;21918;49.940;7.774;2023-07-28T12:55:16;98154.88;;;27.68;57.90
35798;BME280;21918;49.940;7.774;2023-07-28T12:57:44;98152.38;;;27.70;57.89
35798;BME280;21918;49.940;7.774;2023-07-28T13:00:14;98147.81;;;27.72;57.72
35798;BME280;21918;49.940;7.774;2023-07-28T13:02:45;98146.22;;;27.71;57.64
35798;BME280;21918;49.940;7.774;2023-07-28T13:05:13;98149.28;;;27.77;57.44
35798;BME280;21918;49.940;7.774;2023-07-28T13:07:42;98154.84;;;27.80;57.42
35798;BME280;21918;49.940;7.774;2023-07-28T13:10:13;98154.06;;;27.80;57.33